Balmorhea, TX (79718)

1:24 AM CDT on March 23, 2017 (GMT -0500)
Pecos Municipal | | Change Station
Active Advisory: Fire Weather Warning

Elev 2612 ft 31.38 °N, 103.51 °W | Updated 9 minutes ago

Clear
Clear
69 °F
Feels Like 69 °F
N
15
Wind Variable Wind from ESE

Today
High -- | Low -- °F
--% Chance of Precip.
Yesterday
High -- | Low -- °F
Precip. -- in
Pressure 29.88 in
Visibility 10.0 miles
Clouds Clear
Dew Point 58 °F
Humidity 68%
Rainfall 0.00 in
Snow Depth Not available.
7:54 AM 8:08 PM
Waning Crescent, 26% visible
METAR KPEQ 230615Z AUTO 11013KT 10SM CLR 21/15 A2988 RMK AO2 T02060145
Pressure 29.88 in
Visibility 10.0 miles
Clouds Clear
Dew Point 58 °F
Humidity 68%
Rainfall 0.00 in
Snow Depth Not available.
7:54 AM 8:08 PM
Waning Crescent, 26% visible
METAR KPEQ 230615Z AUTO 11013KT 10SM CLR 21/15 A2988 RMK AO2 T02060145

Get Your Daily Forecast Email!

Thanks for signing up!

Be on the lookout for a verification email in your inbox.

You'll start receiving severe weather alerts in your inbox..

×

10-Day Weather Forecast

Almanac

Astronomy

Mar. 23, 2017 Rise Set
Actual Time
Civil Twilight
Nautical Twilight
Astronomical Twilight
Moon
Length of Visible Light
Length of Day
Tomorrow will be .
, % of the Moon is Illuminated

Today's Extremes

State Highs State Lows

Community

WunderPhotos

Upload Photos

1,962,540 photos uploaded!

WunderBlog® & News

Nearby

Air Quality

  Air Quality AQ Index Pollutant
Not available.

Snow Depth

Station Depth Elevation

Earthquake Activity

City Distance Mag. Time & Date
Minimum magnitude displayed is 2.5.

Earthquake Activity

City Distance Mag. Time & Date
Minimum magnitude displayed is 2.5.

Coastal Water Temperatures

Place Temperature

Stations

Nearby Weather Stations

Station Location Temp. Windchill Dew Point Humidity Wind Precip. Elev Updated Type
                   

Watches & Warnings

Fire Weather Warning
Issued: 5:45 PM MDT Mar. 22, 2017 – National Weather Service

... Red flag warning now in effect from noon CDT /11 am MDT/
Thursday to 1 am CDT /midnight MDT/ Friday for relative humidity
of 15% or less, 20 foot winds of 20 mph or more, and very high to
extreme fire danger...

* humidity... 4 to 15%.

* Wind... southwest to west 20 to 35 mph. Above 6000 ft... west
winds 35 to 50 mph with higher gusts.

* Fire danger... very high to extreme.

* Impacts... any fires that develop will likely spread rapidly.
Outdoor burning is not recommended.

Precautionary/preparedness actions...

Do not throw cigarettes onto the ground or out of a moving
vehicle. Do not drive through tall grass. Avoid activities that
may produce outdoor flames or Sparks. Accidental ignitions will
have the potential to grow rapidly into dangerous wind-driven
wildfires.